createdAt,value
2022-09-11T00:01:47.408Z,0.90
2022-09-11T00:04:16.334Z,0.80
2022-09-11T00:06:48.291Z,0.73
2022-09-11T00:11:44.704Z,0.73
2022-09-11T00:14:14.467Z,0.70
2022-09-11T00:16:47.117Z,0.82
2022-09-11T00:19:37.238Z,0.80
2022-09-11T00:22:05.965Z,0.80
2022-09-11T00:24:33.920Z,0.88
2022-09-11T00:27:01.705Z,1.10
2022-09-11T00:29:49.708Z,0.88
2022-09-11T00:32:38.508Z,0.90
2022-09-11T00:35:07.452Z,0.82
2022-09-11T00:37:35.829Z,0.88
2022-09-11T00:40:04.843Z,0.90
2022-09-11T00:42:34.688Z,1.00
2022-09-11T00:45:07.417Z,0.90
2022-09-11T00:47:37.176Z,0.80
2022-09-11T00:50:19.308Z,1.10
2022-09-11T00:53:03.361Z,0.88
2022-09-11T00:55:35.326Z,0.90
2022-09-11T00:58:12.667Z,0.90
2022-09-11T01:00:44.335Z,0.88
2022-09-11T01:03:29.099Z,1.00
2022-09-11T01:05:59.295Z,0.90
2022-09-11T01:08:27.731Z,0.98
2022-09-11T01:11:16.898Z,0.90
2022-09-11T01:14:25.193Z,1.08
2022-09-11T01:17:18.118Z,1.25
2022-09-11T01:20:05.537Z,1.00
2022-09-11T01:23:20.763Z,0.75
2022-09-11T01:26:34.743Z,1.02
2022-09-11T01:29:20.843Z,1.10
2022-09-11T01:32:11.994Z,0.95
2022-09-11T01:38:00.502Z,0.90
2022-09-11T01:40:59.413Z,0.90
2022-09-11T01:43:36.120Z,1.02
2022-09-11T01:46:10.604Z,1.10
2022-09-11T01:48:47.290Z,0.82
2022-09-11T01:51:28.453Z,0.98
2022-09-11T01:54:00.228Z,0.90
2022-09-11T01:56:41.486Z,1.00
2022-09-11T01:59:16.259Z,0.80
2022-09-11T02:01:52.485Z,0.95
2022-09-11T02:04:38.010Z,0.85
2022-09-11T02:07:27.522Z,0.80
2022-09-11T02:12:46.322Z,0.85
2022-09-11T02:15:18.060Z,1.10
2022-09-11T02:18:02.133Z,1.05
2022-09-11T02:20:32.349Z,1.05
2022-09-11T02:23:02.084Z,1.17
2022-09-11T02:25:31.188Z,0.82
2022-09-11T02:27:59.999Z,1.05
2022-09-11T02:33:01.118Z,1.02
2022-09-11T02:35:44.106Z,0.90
2022-09-11T02:38:38.269Z,1.17
2022-09-11T02:41:18.843Z,1.08
2022-09-11T02:44:29.666Z,1.02
2022-09-11T02:47:25.542Z,0.95
2022-09-11T02:50:17.500Z,1.20
2022-09-11T02:53:07.663Z,1.00
2022-09-11T02:56:13.328Z,1.02
2022-09-11T02:59:19.180Z,1.10
2022-09-11T03:01:52.032Z,1.10
2022-09-11T03:04:25.749Z,1.15
2022-09-11T03:06:56.974Z,1.10
2022-09-11T03:09:26.045Z,1.13
2022-09-11T03:12:01.204Z,1.10
2022-09-11T03:14:31.027Z,1.20
2022-09-11T03:17:00.224Z,1.08
2022-09-11T03:19:31.710Z,1.25
2022-09-11T03:22:02.466Z,1.25
2022-09-11T03:24:31.202Z,1.13
2022-09-11T03:27:04.656Z,1.15
2022-09-11T03:29:37.590Z,1.20
2022-09-11T03:32:10.262Z,1.20
2022-09-11T03:34:40.695Z,1.15
2022-09-11T03:37:12.335Z,1.25
2022-09-11T03:39:43.636Z,1.30
2022-09-11T03:42:14.364Z,1.33
2022-09-11T03:44:45.674Z,1.50
2022-09-11T03:47:18.646Z,0.93
2022-09-11T03:49:48.248Z,1.20
2022-09-11T03:52:17.643Z,1.52
2022-09-11T03:54:48.500Z,1.40
2022-09-11T03:57:17.540Z,1.50
2022-09-11T03:59:46.189Z,1.30
2022-09-11T04:02:15.335Z,1.20
2022-09-11T04:04:46.531Z,1.50
2022-09-11T04:07:18.722Z,1.35
2022-09-11T04:09:47.504Z,1.77
2022-09-11T04:12:16.439Z,1.40
2022-09-11T04:14:46.184Z,1.45
2022-09-11T04:17:16.613Z,1.40
2022-09-11T04:19:45.578Z,1.33
2022-09-11T04:22:13.858Z,1.50
2022-09-11T04:24:47.133Z,1.40
2022-09-11T04:29:47.830Z,1.40
2022-09-11T04:32:18.941Z,1.50
2022-09-11T04:34:49.453Z,1.65
2022-09-11T04:37:20.439Z,1.70
2022-09-11T04:39:51.925Z,1.30
2022-09-11T04:42:20.361Z,1.48
2022-09-11T04:44:51.114Z,1.40
2022-09-11T04:47:22.211Z,1.38
2022-09-11T04:49:52.934Z,1.50
2022-09-11T04:52:21.633Z,1.67
2022-09-11T04:54:55.687Z,1.70
2022-09-11T04:57:32.062Z,1.67
2022-09-11T05:00:02.427Z,1.38
2022-09-11T05:02:32.717Z,1.50
2022-09-11T05:05:00.850Z,1.80
2022-09-11T05:07:30.232Z,1.60
2022-09-11T05:10:00.644Z,1.60
2022-09-11T05:12:32.665Z,1.35
2022-09-11T05:15:02.202Z,1.70
2022-09-11T05:17:33.424Z,1.58
2022-09-11T05:20:01.534Z,1.90
2022-09-11T05:22:33.096Z,1.55
2022-09-11T05:25:16.091Z,1.70
2022-09-11T05:27:45.821Z,1.67
2022-09-11T05:30:16.703Z,1.63
2022-09-11T05:32:45.116Z,1.40
2022-09-11T05:35:14.154Z,1.70
2022-09-11T05:37:45.643Z,1.85
2022-09-11T05:40:15.174Z,1.55
2022-09-11T05:42:45.113Z,1.73
2022-09-11T05:45:13.653Z,1.88
2022-09-11T05:47:45.721Z,1.85
2022-09-11T05:50:15.737Z,1.70
2022-09-11T05:52:46.633Z,1.70
2022-09-11T05:55:17.372Z,1.75
2022-09-11T05:57:47.251Z,1.70
2022-09-11T06:00:16.333Z,1.80
2022-09-11T06:02:54.395Z,1.60
2022-09-11T06:05:25.323Z,1.90
2022-09-11T06:07:54.449Z,1.50
2022-09-11T06:10:23.750Z,1.63
2022-09-11T06:12:52.170Z,1.80
2022-09-11T06:15:45.289Z,1.80
2022-09-11T06:18:12.737Z,1.60
2022-09-11T06:20:42.675Z,1.60
2022-09-11T06:23:19.222Z,1.60
2022-09-11T06:25:48.965Z,1.67
2022-09-11T06:28:18.004Z,1.70
2022-09-11T06:30:52.249Z,2.05
2022-09-11T06:33:22.561Z,1.92
2022-09-11T06:36:07.858Z,2.10
2022-09-11T06:38:36.300Z,1.98
2022-09-11T06:41:08.604Z,1.80
2022-09-11T06:43:38.919Z,2.13
2022-09-11T06:46:14.448Z,1.98
2022-09-11T06:48:45.357Z,1.95
2022-09-11T06:51:24.233Z,2.13
2022-09-11T06:53:59.546Z,1.98
2022-09-11T06:56:32.753Z,1.95
2022-09-11T06:59:03.638Z,2.30
2022-09-11T07:01:33.987Z,2.10
2022-09-11T07:04:04.698Z,2.30
2022-09-11T07:06:38.447Z,2.10
2022-09-11T07:09:08.387Z,2.05
2022-09-11T07:11:51.869Z,2.17
2022-09-11T07:14:21.908Z,2.50
2022-09-11T07:16:55.494Z,2.13
2022-09-11T07:19:28.283Z,2.45
2022-09-11T07:21:58.395Z,2.53
2022-09-11T07:27:14.299Z,2.28
2022-09-11T07:29:44.308Z,2.30
2022-09-11T07:32:13.390Z,2.58
2022-09-11T07:34:42.333Z,2.17
2022-09-11T07:39:44.537Z,2.35
2022-09-11T07:42:20.442Z,2.53
2022-09-11T07:44:50.983Z,2.28
2022-09-11T07:47:19.547Z,2.40
2022-09-11T07:49:51.305Z,2.75
2022-09-11T07:52:21.118Z,2.95
2022-09-11T07:54:53.472Z,2.60
2022-09-11T07:57:25.470Z,2.35
2022-09-11T07:59:54.336Z,2.58
2022-09-11T08:02:26.884Z,2.30
2022-09-11T08:04:57.351Z,2.60
2022-09-11T08:07:29.197Z,2.50
2022-09-11T08:10:16.632Z,2.30
2022-09-11T08:12:48.847Z,2.22
2022-09-11T08:15:20.774Z,2.30
2022-09-11T08:17:49.720Z,2.50
2022-09-11T08:20:19.693Z,2.40
2022-09-11T08:22:48.201Z,2.65
2022-09-11T08:25:17.074Z,2.38
2022-09-11T08:27:47.250Z,2.53
2022-09-11T08:30:19.428Z,2.70
2022-09-11T08:32:48.399Z,2.45
2022-09-11T08:35:18.117Z,2.50
2022-09-11T08:37:46.594Z,2.60
2022-09-11T08:40:15.156Z,2.47
2022-09-11T08:42:48.246Z,2.33
2022-09-11T08:45:21.421Z,2.47
2022-09-11T08:47:58.638Z,2.92
2022-09-11T08:50:44.502Z,2.70
2022-09-11T08:53:19.849Z,2.70
2022-09-11T08:56:22.576Z,2.47
2022-09-11T09:00:00.132Z,2.80
2022-09-11T09:02:59.760Z,2.58
2022-09-11T09:05:57.878Z,2.47
2022-09-11T09:09:24.086Z,2.58
2022-09-11T09:12:32.992Z,3.50
2022-09-11T09:15:19.077Z,3.00
2022-09-11T09:18:33.781Z,3.30
2022-09-11T09:21:12.590Z,3.10
2022-09-11T09:23:52.317Z,3.80
2022-09-11T09:26:23.894Z,2.72
2022-09-11T09:28:58.468Z,3.30
2022-09-11T09:31:32.248Z,3.17
2022-09-11T09:34:24.844Z,4.32
2022-09-11T09:37:24.223Z,3.30
2022-09-11T09:39:58.281Z,3.00
2022-09-11T09:43:16.676Z,3.28
2022-09-11T09:46:25.764Z,3.10
2022-09-11T09:48:56.236Z,3.00
2022-09-11T09:51:26.870Z,3.17
2022-09-11T09:54:07.389Z,3.08
2022-09-11T09:56:43.474Z,3.00
2022-09-11T09:59:22.654Z,2.90
2022-09-11T10:01:54.434Z,3.00
2022-09-11T10:04:29.705Z,3.20
2022-09-11T10:07:24.921Z,3.67
2022-09-11T10:10:03.450Z,3.20
2022-09-11T10:12:32.759Z,2.97
2022-09-11T10:15:09.562Z,3.35
2022-09-11T10:17:38.514Z,2.80
2022-09-11T10:20:23.746Z,2.90
2022-09-11T10:23:25.466Z,3.08
2022-09-11T10:25:54.753Z,3.17
2022-09-11T10:28:33.835Z,3.22
2022-09-11T10:31:05.449Z,2.97
2022-09-11T10:33:46.597Z,3.42
2022-09-11T10:36:24.604Z,3.70
2022-09-11T10:39:01.972Z,3.15
2022-09-11T10:41:35.104Z,3.33
2022-09-11T10:44:12.062Z,3.00
2022-09-11T10:46:46.495Z,2.90
2022-09-11T10:49:28.902Z,2.97
2022-09-11T10:52:12.421Z,3.45
2022-09-11T10:55:09.848Z,3.47
2022-09-11T10:57:46.445Z,3.20
2022-09-11T11:00:31.007Z,3.03
2022-09-11T11:03:24.431Z,2.77
2022-09-11T11:06:50.701Z,3.08
2022-09-11T11:09:42.020Z,2.75
2022-09-11T11:12:43.365Z,2.72
2022-09-11T11:15:36.289Z,2.80
2022-09-11T11:18:43.776Z,2.70
2022-09-11T11:21:22.699Z,2.58
2022-09-11T11:24:08.855Z,3.10
2022-09-11T11:27:06.105Z,2.60
2022-09-11T11:30:37.752Z,2.80
2022-09-11T11:34:00.709Z,2.58
2022-09-11T11:37:04.674Z,2.63
2022-09-11T11:39:53.436Z,2.20
2022-09-11T11:42:55.412Z,2.25
2022-09-11T11:45:43.084Z,2.58
2022-09-11T11:48:46.975Z,2.17
2022-09-11T11:54:52.342Z,2.78
2022-09-11T11:57:28.251Z,2.45
2022-09-11T12:00:14.707Z,2.35
2022-09-11T12:03:17.239Z,2.47
2022-09-11T12:05:46.067Z,2.47
2022-09-11T12:08:18.324Z,2.65
2022-09-11T12:11:14.251Z,2.90
2022-09-11T12:13:50.002Z,2.55
2022-09-11T12:16:42.439Z,2.58
2022-09-11T12:19:20.551Z,2.70
2022-09-11T12:21:55.800Z,2.60
2022-09-11T12:24:50.884Z,2.25
2022-09-11T12:27:41.193Z,2.40
2022-09-11T12:30:32.385Z,2.17
2022-09-11T12:33:03.351Z,2.50
2022-09-11T12:35:54.642Z,2.60
2022-09-11T12:38:39.023Z,2.40
2022-09-11T12:41:29.009Z,2.67
2022-09-11T12:44:02.794Z,2.38
2022-09-11T12:46:44.379Z,2.65
2022-09-11T12:49:25.675Z,2.40
2022-09-11T12:52:04.524Z,2.50
2022-09-11T12:54:43.797Z,2.30
2022-09-11T12:57:29.182Z,2.50
2022-09-11T13:00:02.680Z,2.47
2022-09-11T13:02:45.690Z,2.15
2022-09-11T13:05:35.081Z,2.33
2022-09-11T13:08:15.230Z,2.20
2022-09-11T13:10:48.102Z,2.25
2022-09-11T13:13:37.549Z,2.35
2022-09-11T13:16:28.925Z,2.30
2022-09-11T13:19:22.013Z,2.40
2022-09-11T13:21:53.795Z,2.35
2022-09-11T13:24:31.984Z,2.35
2022-09-11T13:27:13.731Z,2.30
2022-09-11T13:29:43.214Z,2.30
2022-09-11T13:32:17.839Z,2.20
2022-09-11T13:34:53.258Z,2.20
2022-09-11T13:37:34.127Z,2.40
2022-09-11T13:40:05.971Z,2.05
2022-09-11T13:42:36.241Z,2.42
2022-09-11T13:45:11.031Z,2.20
2022-09-11T13:47:42.596Z,2.30
2022-09-11T13:50:18.037Z,2.60
2022-09-11T13:52:48.427Z,1.85
2022-09-11T13:55:23.188Z,2.20
2022-09-11T13:58:04.308Z,2.00
2022-09-11T14:00:48.993Z,2.00
2022-09-11T14:03:23.486Z,2.05
2022-09-11T14:06:09.322Z,12.38
2022-09-11T14:08:50.543Z,50.15
2022-09-11T14:11:46.573Z,19.02
2022-09-11T14:14:28.300Z,49.42
2022-09-11T14:17:01.903Z,25.52
2022-09-11T14:19:36.583Z,13.40
2022-09-11T14:22:22.775Z,5.85
2022-09-11T14:25:10.674Z,17.35
2022-09-11T14:27:43.516Z,6.07
2022-09-11T14:30:25.812Z,3.70
2022-09-11T14:33:21.923Z,13.73
2022-09-11T14:35:52.776Z,4.60
2022-09-11T14:38:23.893Z,3.92
2022-09-11T14:41:00.692Z,14.50
2022-09-11T14:43:32.883Z,5.30
2022-09-11T14:46:03.003Z,2.95
2022-09-11T14:48:35.843Z,2.50
2022-09-11T14:51:13.262Z,2.35
2022-09-11T14:53:43.654Z,2.13
2022-09-11T14:56:12.699Z,1.85
2022-09-11T14:58:40.678Z,2.00
2022-09-11T15:01:14.015Z,1.80
2022-09-11T15:03:42.757Z,2.00
2022-09-11T15:06:19.674Z,1.52
2022-09-11T15:08:48.849Z,2.00
2022-09-11T15:11:18.586Z,1.67
2022-09-11T15:14:13.537Z,1.63
2022-09-11T15:16:38.068Z,1.55
2022-09-11T15:19:06.037Z,1.50
2022-09-11T15:21:37.605Z,1.90
2022-09-11T15:24:07.069Z,1.52
2022-09-11T15:26:38.797Z,1.77
2022-09-11T15:29:10.468Z,1.73
2022-09-11T15:31:39.555Z,1.60
2022-09-11T15:34:07.917Z,1.80
2022-09-11T15:36:40.457Z,1.88
2022-09-11T15:39:16.586Z,1.60
2022-09-11T15:41:49.184Z,1.60
2022-09-11T15:44:25.660Z,1.60
2022-09-11T15:46:57.362Z,1.60
2022-09-11T15:49:29.576Z,1.40
2022-09-11T15:52:00.165Z,1.50
2022-09-11T15:54:28.707Z,1.83
2022-09-11T15:56:58.910Z,1.85
2022-09-11T15:59:27.655Z,1.75
2022-09-11T16:01:56.483Z,1.65
2022-09-11T16:04:28.794Z,1.50
2022-09-11T16:06:59.327Z,1.50
2022-09-11T16:09:32.586Z,1.60
2022-09-11T16:12:02.042Z,1.80
2022-09-11T16:14:35.213Z,1.70
2022-09-11T16:17:05.877Z,2.00
2022-09-11T16:19:36.719Z,2.83
2022-09-11T16:22:06.266Z,1.85
2022-09-11T16:24:37.781Z,1.95
2022-09-11T16:27:10.327Z,1.80
2022-09-11T16:32:29.462Z,1.70
2022-09-11T16:34:59.841Z,1.73
2022-09-11T16:37:29.414Z,1.50
2022-09-11T16:39:58.821Z,1.70
2022-09-11T16:42:26.953Z,1.67
2022-09-11T16:44:55.587Z,1.60
2022-09-11T16:47:24.280Z,1.52
2022-09-11T16:50:09.302Z,1.63
2022-09-11T16:52:39.495Z,1.90
2022-09-11T16:55:10.148Z,1.85
2022-09-11T16:57:40.145Z,1.88
2022-09-11T17:00:10.218Z,1.67
2022-09-11T17:02:38.882Z,1.70
2022-09-11T17:05:09.434Z,1.80
2022-09-11T17:07:37.276Z,1.63
2022-09-11T17:10:05.893Z,1.60
2022-09-11T17:12:34.037Z,1.75
2022-09-11T17:15:03.047Z,1.60
2022-09-11T17:17:32.298Z,1.70
2022-09-11T17:20:01.708Z,1.60
2022-09-11T17:22:30.179Z,1.80
2022-09-11T17:25:01.581Z,1.80
2022-09-11T17:27:31.805Z,2.00
2022-09-11T17:30:01.036Z,1.75
2022-09-11T17:32:31.270Z,2.10
2022-09-11T17:34:59.730Z,1.92
2022-09-11T17:37:28.635Z,1.80
2022-09-11T17:40:01.825Z,2.03
2022-09-11T17:42:30.343Z,1.83
2022-09-11T17:45:00.773Z,2.97
2022-09-11T17:47:33.552Z,4.68
2022-09-11T17:50:03.114Z,5.10
2022-09-11T17:52:34.619Z,4.32
2022-09-11T17:55:06.492Z,3.70
2022-09-11T17:57:35.272Z,3.05
2022-09-11T18:00:06.526Z,2.53
2022-09-11T18:02:45.424Z,2.42
2022-09-11T18:05:13.578Z,2.42
2022-09-11T18:07:42.942Z,2.65
2022-09-11T18:10:11.413Z,2.40
2022-09-11T18:12:40.904Z,2.75
2022-09-11T18:15:10.318Z,2.83
2022-09-11T18:17:39.767Z,2.63
2022-09-11T18:20:10.077Z,2.83
2022-09-11T18:22:39.897Z,2.33
2022-09-11T18:25:09.936Z,2.38
2022-09-11T18:27:40.837Z,2.25
2022-09-11T18:30:36.574Z,2.40
2022-09-11T18:33:21.397Z,2.38
2022-09-11T18:36:10.698Z,2.40
2022-09-11T18:38:40.918Z,1.95
2022-09-11T18:41:10.279Z,2.20
2022-09-11T18:44:05.980Z,2.20
2022-09-11T18:46:37.699Z,2.20
2022-09-11T18:49:09.485Z,2.33
2022-09-11T18:51:38.287Z,2.17
2022-09-11T18:54:07.484Z,2.67
2022-09-11T18:56:36.476Z,2.80
2022-09-11T18:59:25.138Z,2.92
2022-09-11T19:01:53.857Z,2.72
2022-09-11T19:04:24.350Z,2.80
2022-09-11T19:06:54.783Z,3.00
2022-09-11T19:11:55.662Z,2.70
2022-09-11T19:14:27.193Z,2.92
2022-09-11T19:17:00.309Z,2.53
2022-09-11T19:19:31.126Z,2.83
2022-09-11T19:22:00.891Z,2.90
2022-09-11T19:24:30.337Z,2.60
2022-09-11T19:27:00.173Z,2.60
2022-09-11T19:29:28.658Z,2.85
2022-09-11T19:31:57.468Z,2.85
2022-09-11T19:34:25.502Z,3.00
2022-09-11T19:36:54.326Z,3.30
2022-09-11T19:39:23.545Z,2.78
2022-09-11T19:41:53.162Z,3.10
2022-09-11T19:44:21.378Z,2.92
2022-09-11T19:46:54.127Z,3.15
2022-09-11T19:49:23.850Z,3.33
2022-09-11T19:51:54.530Z,3.20
2022-09-11T19:54:24.551Z,3.25
2022-09-11T19:56:53.814Z,3.03
2022-09-11T19:59:21.536Z,3.05
2022-09-11T20:01:50.080Z,3.20
2022-09-11T20:04:19.051Z,3.00
2022-09-11T20:09:30.921Z,3.08
2022-09-11T20:12:01.810Z,3.00
2022-09-11T20:14:31.350Z,2.88
2022-09-11T20:17:01.048Z,2.97
2022-09-11T20:19:30.150Z,2.97
2022-09-11T20:22:00.351Z,3.08
2022-09-11T20:24:28.426Z,2.90
2022-09-11T20:26:56.918Z,3.58
2022-09-11T20:29:25.393Z,3.08
2022-09-11T20:31:56.163Z,3.35
2022-09-11T20:34:30.156Z,3.28
2022-09-11T20:37:01.100Z,3.60
2022-09-11T20:39:29.393Z,3.30
2022-09-11T20:41:57.775Z,3.20
2022-09-11T20:44:27.891Z,3.33
2022-09-11T20:46:56.042Z,3.13
2022-09-11T20:49:25.330Z,2.95
2022-09-11T20:51:53.735Z,3.10
2022-09-11T20:54:22.404Z,3.50
2022-09-11T20:56:51.196Z,3.53
2022-09-11T20:59:19.722Z,3.58
2022-09-11T21:01:49.324Z,3.40
2022-09-11T21:04:18.518Z,3.60
2022-09-11T21:06:48.860Z,3.50
2022-09-11T21:12:03.737Z,3.92
2022-09-11T21:14:32.331Z,3.78
2022-09-11T21:17:02.213Z,3.60
2022-09-11T21:19:32.163Z,3.22
2022-09-11T21:22:01.097Z,3.47
2022-09-11T21:24:28.885Z,3.17
2022-09-11T21:26:57.504Z,3.45
2022-09-11T21:29:26.159Z,3.22
2022-09-11T21:31:55.132Z,3.75
2022-09-11T21:34:24.052Z,3.65
2022-09-11T21:36:54.491Z,3.60
2022-09-11T21:39:23.403Z,3.70
2022-09-11T21:41:52.407Z,3.80
2022-09-11T21:44:22.132Z,3.90
2022-09-11T21:46:50.285Z,4.10
2022-09-11T21:49:19.078Z,4.20
2022-09-11T21:51:47.423Z,4.20
2022-09-11T21:54:15.374Z,4.15
2022-09-11T21:56:44.324Z,4.68
2022-09-11T21:59:14.046Z,4.47
2022-09-11T22:01:42.863Z,4.65
2022-09-11T22:04:10.979Z,5.05
2022-09-11T22:06:40.167Z,4.63
2022-09-11T22:09:09.149Z,4.80
2022-09-11T22:11:37.555Z,4.57
2022-09-11T22:14:06.183Z,4.40
2022-09-11T22:16:34.516Z,4.43
2022-09-11T22:19:02.887Z,4.35
2022-09-11T22:21:30.730Z,5.25
2022-09-11T22:23:58.543Z,4.85
2022-09-11T22:26:26.413Z,5.30
2022-09-11T22:28:54.469Z,5.82
2022-09-11T22:31:25.465Z,5.65
2022-09-11T22:33:56.209Z,5.47
2022-09-11T22:36:28.971Z,6.03
2022-09-11T22:38:59.061Z,5.25
2022-09-11T22:41:27.554Z,5.53
2022-09-11T22:43:55.886Z,5.60
2022-09-11T22:46:27.101Z,5.05
2022-09-11T22:48:56.853Z,5.18
2022-09-11T22:51:25.636Z,4.95
2022-09-11T22:53:54.476Z,4.90
2022-09-11T22:56:24.125Z,4.70
2022-09-11T22:58:54.641Z,4.88
2022-09-11T23:01:24.909Z,4.97
2022-09-11T23:03:53.947Z,5.45
2022-09-11T23:06:40.578Z,5.10
2022-09-11T23:09:18.518Z,5.32
2022-09-11T23:11:47.513Z,5.85
2022-09-11T23:14:17.159Z,5.95
2022-09-11T23:16:45.465Z,5.72
2022-09-11T23:19:15.027Z,5.47
2022-09-11T23:21:43.534Z,5.63
2022-09-11T23:24:14.405Z,5.45
2022-09-11T23:26:43.674Z,5.25
2022-09-11T23:29:14.835Z,5.15
2022-09-11T23:31:44.242Z,4.97
2022-09-11T23:34:16.217Z,4.95
2022-09-11T23:36:44.788Z,4.32
2022-09-11T23:39:12.708Z,4.18
2022-09-11T23:41:40.704Z,3.70
2022-09-11T23:44:09.500Z,4.18
2022-09-11T23:46:38.157Z,4.43
2022-09-11T23:49:07.385Z,4.82
2022-09-11T23:51:35.346Z,5.28
2022-09-11T23:54:04.705Z,5.25
2022-09-11T23:56:33.149Z,5.35
2022-09-11T23:59:01.203Z,5.50
